createdAt,value
2022-09-18T00:02:47.613Z,99245.18
2022-09-18T00:06:04.377Z,99238.61
2022-09-18T00:09:19.516Z,99241.64
2022-09-18T00:12:36.442Z,99239.17
2022-09-18T00:15:30.422Z,99240.10
2022-09-18T00:18:44.534Z,99241.21
2022-09-18T00:22:01.490Z,99240.77
2022-09-18T00:25:05.812Z,99234.14
2022-09-18T00:28:20.552Z,99241.57
2022-09-18T00:31:16.814Z,99241.80
2022-09-18T00:34:31.457Z,99240.60
2022-09-18T00:37:47.386Z,99237.80
2022-09-18T00:40:43.503Z,99239.50
2022-09-18T00:44:01.393Z,99237.96
2022-09-18T00:46:40.325Z,99241.05
2022-09-18T00:49:26.404Z,99236.40
2022-09-18T00:52:04.462Z,99232.86
2022-09-18T00:54:51.443Z,99234.90
2022-09-18T00:58:06.919Z,99240.59
2022-09-18T01:01:37.211Z,99235.89
2022-09-18T01:04:15.592Z,99235.23
2022-09-18T01:07:33.289Z,99234.17
2022-09-18T01:11:30.881Z,99232.45
2022-09-18T01:14:50.621Z,99240.79
2022-09-18T01:18:32.707Z,99238.77
2022-09-18T01:22:00.625Z,99239.02
2022-09-18T01:25:16.893Z,99235.56
2022-09-18T01:28:19.562Z,99238.08
2022-09-18T01:30:59.446Z,99236.12
2022-09-18T01:34:52.387Z,99238.67
2022-09-18T01:37:56.261Z,99233.32
2022-09-18T01:40:56.347Z,99224.84
2022-09-18T01:44:07.367Z,99233.41
2022-09-18T01:47:18.822Z,99233.18
2022-09-18T01:50:02.065Z,99232.29
2022-09-18T01:53:03.409Z,99224.91
2022-09-18T01:55:39.342Z,99226.72
2022-09-18T01:58:28.247Z,99225.48
2022-09-18T02:01:22.226Z,99226.55
2022-09-18T02:03:59.733Z,99228.96
2022-09-18T02:06:43.424Z,99226.21
2022-09-18T02:09:15.358Z,99223.62
2022-09-18T02:12:26.006Z,99221.44
2022-09-18T02:15:23.535Z,99231.52
2022-09-18T02:18:19.446Z,99231.36
2022-09-18T02:21:04.223Z,99228.25
2022-09-18T02:23:58.185Z,99229.09
2022-09-18T02:27:13.456Z,99225.11
2022-09-18T02:30:28.417Z,99219.60
2022-09-18T02:33:53.786Z,99217.56
2022-09-18T02:36:47.301Z,99220.06
2022-09-18T02:39:47.454Z,99213.07
2022-09-18T02:42:53.001Z,99220.55
2022-09-18T02:46:37.123Z,99222.62
2022-09-18T02:49:26.196Z,99228.59
2022-09-18T02:52:06.046Z,99223.73
2022-09-18T02:55:36.221Z,99224.59
2022-09-18T02:58:16.304Z,99220.30
2022-09-18T03:00:58.326Z,99223.72
2022-09-18T03:03:55.384Z,99225.95
2022-09-18T03:06:34.306Z,99228.20
2022-09-18T03:09:49.268Z,99228.40
2022-09-18T03:12:49.580Z,99228.38
2022-09-18T03:16:06.812Z,99228.86
2022-09-18T03:19:04.555Z,99229.38
2022-09-18T03:21:47.486Z,99231.73
2022-09-18T03:24:25.745Z,99229.67
2022-09-18T03:27:23.293Z,99223.01
2022-09-18T03:30:25.593Z,99221.23
2022-09-18T03:33:21.106Z,99223.15
2022-09-18T03:36:36.282Z,99220.70
2022-09-18T03:39:54.511Z,99223.80
2022-09-18T03:42:50.836Z,99226.38
2022-09-18T03:46:05.194Z,99225.06
2022-09-18T03:48:43.937Z,99227.33
2022-09-18T03:51:24.266Z,99226.51
2022-09-18T03:54:35.180Z,99222.69
2022-09-18T03:57:42.284Z,99225.52
2022-09-18T04:00:49.336Z,99228.28
2022-09-18T04:04:03.725Z,99220.91
2022-09-18T04:07:02.960Z,99225.23
2022-09-18T04:09:54.885Z,99222.84
2022-09-18T04:12:28.843Z,99221.95
2022-09-18T04:15:12.739Z,99219.81
2022-09-18T04:17:46.732Z,99216.33
2022-09-18T04:20:39.130Z,99219.42
2022-09-18T04:24:09.143Z,99220.64
2022-09-18T04:27:19.102Z,99224.61
2022-09-18T04:30:29.857Z,99219.33
2022-09-18T04:33:17.267Z,99223.51
2022-09-18T04:36:19.097Z,99227.34
2022-09-18T04:39:23.634Z,99225.15
2022-09-18T04:42:27.187Z,99229.61
2022-09-18T04:45:37.852Z,99236.14
2022-09-18T04:48:28.448Z,99234.27
2022-09-18T04:51:00.197Z,99237.42
2022-09-18T04:53:32.703Z,99237.34
2022-09-18T04:56:16.194Z,99237.20
2022-09-18T04:59:18.314Z,99235.89
2022-09-18T05:06:47.767Z,99235.79
2022-09-18T05:09:19.507Z,99240.98
2022-09-18T05:11:50.843Z,99237.88
2022-09-18T05:14:23.333Z,99234.80
2022-09-18T05:16:58.008Z,99234.83
2022-09-18T05:20:05.780Z,99235.14
2022-09-18T05:22:46.359Z,99229.28
2022-09-18T05:25:20.969Z,99230.21
2022-09-18T05:28:05.851Z,99231.42
2022-09-18T05:30:41.327Z,99234.91
2022-09-18T05:33:13.383Z,99235.84
2022-09-18T05:35:44.736Z,99232.98
2022-09-18T05:38:15.459Z,99237.66
2022-09-18T05:40:49.199Z,99237.33
2022-09-18T05:43:25.762Z,99238.43
2022-09-18T05:47:03.072Z,99237.80
2022-09-18T05:49:34.057Z,99241.14
2022-09-18T05:52:07.047Z,99241.66
2022-09-18T05:54:38.264Z,99231.55
2022-09-18T05:57:08.643Z,99244.91
2022-09-18T05:59:39.013Z,99245.10
2022-09-18T06:02:12.622Z,99244.92
2022-09-18T06:05:21.897Z,99248.20
2022-09-18T06:14:20.075Z,99243.16
2022-09-18T06:16:52.665Z,99242.73
2022-09-18T06:24:00.220Z,99252.39
2022-09-18T06:26:54.907Z,99254.95
2022-09-18T06:29:39.004Z,99253.90
2022-09-18T06:32:13.424Z,99256.67
2022-09-18T06:34:45.053Z,99248.60
2022-09-18T06:37:18.075Z,99254.24
2022-09-18T06:40:03.459Z,99256.32
2022-09-18T06:42:48.544Z,99253.07
2022-09-18T06:45:38.885Z,99254.08
2022-09-18T06:48:09.433Z,99249.42
2022-09-18T06:50:40.464Z,99250.28
2022-09-18T06:53:12.802Z,99255.11
2022-09-18T06:55:53.024Z,99246.07
2022-09-18T06:58:24.959Z,99245.80
2022-09-18T07:00:56.007Z,99244.86
2022-09-18T07:03:42.283Z,99241.69
2022-09-18T07:06:24.224Z,99244.66
2022-09-18T07:08:58.684Z,99247.60
2022-09-18T07:13:19.726Z,99248.80
2022-09-18T07:15:50.692Z,99248.38
2022-09-18T07:18:21.238Z,99247.52
2022-09-18T07:20:55.204Z,99250.05
2022-09-18T07:27:34.410Z,99250.89
2022-09-18T07:30:04.643Z,99248.76
2022-09-18T07:41:37.446Z,99251.08
2022-09-18T07:44:09.476Z,99256.44
2022-09-18T07:46:40.800Z,99251.96
2022-09-18T07:49:11.689Z,99249.02
2022-09-18T07:52:05.246Z,99250.06
2022-09-18T07:55:23.573Z,99250.60
2022-09-18T07:58:48.154Z,99249.82
2022-09-18T08:01:40.184Z,99248.33
2022-09-18T08:04:11.113Z,99249.93
2022-09-18T08:07:13.256Z,99251.38
2022-09-18T08:10:02.273Z,99249.23
2022-09-18T08:12:42.557Z,99254.11
2022-09-18T08:15:57.757Z,99243.96
2022-09-18T08:18:38.813Z,99252.92
2022-09-18T08:21:19.536Z,99250.83
2022-09-18T08:23:55.906Z,99253.02
2022-09-18T08:26:31.012Z,99254.92
2022-09-18T08:29:02.213Z,99258.11
2022-09-18T08:31:36.773Z,99253.75
2022-09-18T08:34:10.691Z,99253.82
2022-09-18T08:36:41.319Z,99252.84
2022-09-18T08:39:21.064Z,99252.56
2022-09-18T08:42:35.755Z,99251.44
2022-09-18T08:45:23.490Z,99255.70
2022-09-18T08:48:07.086Z,99255.38
2022-09-18T08:50:54.063Z,99259.42
2022-09-18T08:53:52.116Z,99254.40
2022-09-18T08:56:57.038Z,99261.80
2022-09-18T08:59:48.790Z,99261.81
2022-09-18T09:02:37.628Z,99262.02
2022-09-18T09:05:30.537Z,99255.17
2022-09-18T09:08:04.731Z,99257.75
2022-09-18T09:10:35.397Z,99260.03
2022-09-18T09:13:37.648Z,99261.31
2022-09-18T09:16:40.664Z,99255.83
2022-09-18T09:19:34.768Z,99255.70
2022-09-18T09:22:19.492Z,99259.91
2022-09-18T09:25:20.010Z,99259.50
2022-09-18T09:28:20.149Z,99256.91
2022-09-18T09:31:12.733Z,99262.84
2022-09-18T09:34:20.677Z,99261.64
2022-09-18T09:37:02.910Z,99263.51
2022-09-18T09:40:00.270Z,99263.45
2022-09-18T09:42:59.462Z,99267.60
2022-09-18T09:45:56.865Z,99273.38
2022-09-18T09:48:45.854Z,99277.61
2022-09-18T09:51:37.306Z,99273.04
2022-09-18T09:54:13.836Z,99283.13
2022-09-18T09:57:05.184Z,99285.99
2022-09-18T09:59:48.629Z,99290.79
2022-09-18T10:02:38.556Z,99293.38
2022-09-18T10:05:33.906Z,99298.07
2022-09-18T10:08:43.205Z,99297.98
2022-09-18T10:12:03.990Z,99302.89
2022-09-18T10:15:18.970Z,99308.09
2022-09-18T10:28:03.599Z,99324.89
2022-09-18T10:31:02.613Z,99323.48
2022-09-18T10:33:51.909Z,99326.34
2022-09-18T10:36:42.412Z,99331.70
2022-09-18T10:39:29.286Z,99331.10
2022-09-18T10:42:23.378Z,99332.19
2022-09-18T10:49:42.733Z,99340.25
2022-09-18T10:52:40.602Z,99337.29
2022-09-18T10:55:17.106Z,99340.58
2022-09-18T10:57:58.737Z,99339.40
2022-09-18T11:00:30.507Z,99342.98
2022-09-18T11:03:31.073Z,99344.16
2022-09-18T11:06:10.713Z,99347.46
2022-09-18T11:08:46.950Z,99347.23
2022-09-18T11:11:34.720Z,99345.38
2022-09-18T11:18:49.627Z,99347.58
2022-09-18T11:21:20.842Z,99344.70
2022-09-18T11:24:04.893Z,99344.95
2022-09-18T11:26:35.497Z,99348.08
2022-09-18T11:29:42.667Z,99341.91
2022-09-18T11:32:30.534Z,99341.16
2022-09-18T11:35:15.907Z,99333.69
2022-09-18T11:37:55.006Z,99337.10
2022-09-18T11:40:35.296Z,99337.84
2022-09-18T11:43:54.805Z,99338.02
2022-09-18T11:55:25.770Z,99330.25
2022-09-18T11:58:03.348Z,99327.16
2022-09-18T12:00:45.574Z,99329.51
2022-09-18T12:03:26.316Z,99330.17
2022-09-18T12:06:02.739Z,99331.95
2022-09-18T12:08:34.875Z,99329.94
2022-09-18T12:11:41.684Z,99328.71
2022-09-18T12:14:38.299Z,99324.48
2022-09-18T12:17:48.329Z,99325.96
2022-09-18T12:20:33.949Z,99323.73
2022-09-18T12:23:06.441Z,99318.83
2022-09-18T12:25:44.450Z,99318.61
2022-09-18T12:28:41.595Z,99314.84
2022-09-18T12:31:35.011Z,99311.96
2022-09-18T12:34:38.258Z,99314.52
2022-09-18T12:38:12.421Z,99312.48
2022-09-18T12:41:13.625Z,99313.28
2022-09-18T12:44:23.238Z,99312.08
2022-09-18T12:47:32.492Z,99311.30
2022-09-18T12:50:24.337Z,99315.92
2022-09-18T12:53:27.105Z,99312.91
2022-09-18T12:56:10.305Z,99319.88
2022-09-18T12:59:24.785Z,99317.41
2022-09-18T13:02:31.742Z,99317.81
2022-09-18T13:05:22.025Z,99319.31
2022-09-18T13:08:07.572Z,99317.41
2022-09-18T13:10:49.587Z,99316.22
2022-09-18T13:14:05.793Z,99317.90
2022-09-18T13:17:02.212Z,99323.55
2022-09-18T13:20:06.125Z,99327.08
2022-09-18T13:22:45.391Z,99329.46
2022-09-18T13:25:33.569Z,99331.13
2022-09-18T13:28:09.528Z,99341.08
2022-09-18T13:34:31.140Z,99346.00
2022-09-18T13:37:14.581Z,99347.89
2022-09-18T13:40:09.907Z,99352.69
2022-09-18T13:42:45.242Z,99348.33
2022-09-18T13:45:24.559Z,99353.77
2022-09-18T13:48:24.101Z,99352.92
2022-09-18T13:50:57.974Z,99361.16
2022-09-18T13:53:34.598Z,99353.48
2022-09-18T13:56:07.509Z,99355.36
2022-09-18T13:58:50.647Z,99355.90
2022-09-18T14:05:53.598Z,99357.06
2022-09-18T14:08:23.968Z,99354.73
2022-09-18T14:11:14.907Z,99355.41
2022-09-18T14:13:59.604Z,99355.33
2022-09-18T14:16:41.923Z,99347.92
2022-09-18T14:19:32.698Z,99352.51
2022-09-18T14:23:37.811Z,99351.04
2022-09-18T14:26:30.414Z,99351.55
2022-09-18T14:29:29.129Z,99347.29
2022-09-18T14:32:01.632Z,99347.17
2022-09-18T14:34:41.665Z,99343.33
2022-09-18T14:37:26.250Z,99342.90
2022-09-18T14:39:59.007Z,99340.15
2022-09-18T14:42:39.973Z,99336.11
2022-09-18T14:45:26.663Z,99334.34
2022-09-18T14:47:58.081Z,99334.58
2022-09-18T14:50:39.208Z,99333.49
2022-09-18T14:53:26.327Z,99332.27
2022-09-18T14:56:07.729Z,99333.36
2022-09-18T14:58:41.363Z,99336.23
2022-09-18T15:01:20.329Z,99331.24
2022-09-18T15:03:53.909Z,99330.77
2022-09-18T15:06:32.209Z,99335.46
2022-09-18T15:09:04.530Z,99333.95
2022-09-18T15:11:52.545Z,99330.82
2022-09-18T15:14:31.537Z,99329.92
2022-09-18T15:17:05.240Z,99332.25
2022-09-18T15:19:35.899Z,99329.49
2022-09-18T15:22:06.797Z,99332.65
2022-09-18T15:24:40.384Z,99329.46
2022-09-18T15:27:19.293Z,99326.25
2022-09-18T15:29:54.856Z,99325.23
2022-09-18T15:32:38.441Z,99327.48
2022-09-18T15:35:14.998Z,99326.55
2022-09-18T15:38:02.656Z,99328.92
2022-09-18T15:40:40.521Z,99335.47
2022-09-18T15:43:30.538Z,99339.19
2022-09-18T15:46:12.003Z,99347.09
2022-09-18T15:48:49.382Z,99351.05
2022-09-18T15:51:34.014Z,99353.69
2022-09-18T15:54:14.486Z,99351.61
2022-09-18T15:56:55.323Z,99357.12
2022-09-18T15:59:37.175Z,99362.10
2022-09-18T16:02:21.618Z,99361.09
2022-09-18T16:04:53.689Z,99359.14
2022-09-18T16:07:29.533Z,99360.82
2022-09-18T16:10:00.265Z,99361.73
2022-09-18T16:13:27.531Z,99361.28
2022-09-18T16:20:25.541Z,99366.45
2022-09-18T16:23:04.951Z,99369.48
2022-09-18T16:25:38.104Z,99369.16
2022-09-18T16:33:00.303Z,99374.79
2022-09-18T16:35:31.658Z,99369.58
2022-09-18T16:38:02.301Z,99370.31
2022-09-18T16:40:33.265Z,99377.61
2022-09-18T16:43:05.391Z,99380.58
2022-09-18T16:45:38.693Z,99378.71
2022-09-18T16:48:25.549Z,99382.58
2022-09-18T16:50:58.247Z,99384.17
2022-09-18T16:53:56.031Z,99384.36
2022-09-18T16:57:07.443Z,99378.55
2022-09-18T17:01:36.245Z,99380.02
2022-09-18T17:04:19.275Z,99376.01
2022-09-18T17:06:51.970Z,99375.15
2022-09-18T17:09:24.622Z,99377.02
2022-09-18T17:11:57.050Z,99379.64
2022-09-18T17:14:51.199Z,99373.38
2022-09-18T17:17:32.095Z,99376.93
2022-09-18T17:20:22.400Z,99374.70
2022-09-18T17:23:04.820Z,99380.10
2022-09-18T17:25:36.180Z,99376.23
2022-09-18T17:28:08.639Z,99378.38
2022-09-18T17:30:43.929Z,99374.61
2022-09-18T17:33:20.253Z,99386.19
2022-09-18T17:35:52.005Z,99385.05
2022-09-18T17:38:26.865Z,99390.75
2022-09-18T17:41:02.598Z,99390.42
2022-09-18T17:43:37.516Z,99392.52
2022-09-18T17:46:14.857Z,99390.52
2022-09-18T17:48:46.086Z,99387.35
2022-09-18T17:51:29.343Z,99394.29
2022-09-18T17:54:04.922Z,99392.74
2022-09-18T17:56:41.329Z,99394.17
2022-09-18T18:04:18.518Z,99402.60
2022-09-18T18:06:50.257Z,99405.41
2022-09-18T18:09:24.668Z,99406.94
2022-09-18T18:11:56.352Z,99409.99
2022-09-18T18:14:28.838Z,99408.71
2022-09-18T18:17:01.542Z,99410.06
2022-09-18T18:19:32.800Z,99409.36
2022-09-18T18:22:06.187Z,99411.54
2022-09-18T18:24:36.543Z,99409.42
2022-09-18T18:27:08.207Z,99409.00
2022-09-18T18:29:41.455Z,99407.41
2022-09-18T18:32:13.478Z,99409.30
2022-09-18T18:34:45.341Z,99406.60
2022-09-18T18:37:20.315Z,99403.91
2022-09-18T18:39:55.600Z,99402.35
2022-09-18T18:42:29.009Z,99404.45
2022-09-18T18:49:31.902Z,99411.31
2022-09-18T18:52:04.477Z,99413.39
2022-09-18T18:54:36.791Z,99411.13
2022-09-18T18:57:07.748Z,99413.20
2022-09-18T18:59:39.670Z,99410.48
2022-09-18T19:02:12.838Z,99411.05
2022-09-18T19:04:47.391Z,99410.40
2022-09-18T19:07:17.930Z,99415.70
2022-09-18T19:09:48.858Z,99417.10
2022-09-18T19:12:21.736Z,99413.84
2022-09-18T19:14:54.121Z,99414.66
2022-09-18T19:17:26.882Z,99415.37
2022-09-18T19:19:58.481Z,99415.26
2022-09-18T19:22:30.886Z,99418.71
2022-09-18T19:25:05.272Z,99423.88
2022-09-18T19:27:35.462Z,99422.86
2022-09-18T19:30:07.421Z,99416.70
2022-09-18T19:32:38.423Z,99413.06
2022-09-18T19:35:11.025Z,99419.29
2022-09-18T19:37:42.190Z,99416.42
2022-09-18T19:40:16.641Z,99418.65
2022-09-18T19:42:59.826Z,99413.29
2022-09-18T19:45:34.546Z,99414.96
2022-09-18T19:48:09.060Z,99412.05
2022-09-18T19:50:40.907Z,99412.59
2022-09-18T19:53:22.601Z,99410.45
2022-09-18T19:55:55.071Z,99406.89
2022-09-18T19:58:34.609Z,99414.57
2022-09-18T20:01:13.031Z,99416.98
2022-09-18T20:03:44.386Z,99410.99
2022-09-18T20:06:18.506Z,99412.22
2022-09-18T20:08:49.317Z,99415.34
2022-09-18T20:11:20.068Z,99408.16
2022-09-18T20:13:54.872Z,99412.17
2022-09-18T20:16:26.085Z,99409.45
2022-09-18T20:18:56.776Z,99412.89
2022-09-18T20:21:30.059Z,99412.55
2022-09-18T20:24:05.879Z,99416.91
2022-09-18T20:26:36.680Z,99415.52
2022-09-18T20:29:06.963Z,99412.95
2022-09-18T20:31:40.447Z,99417.27
2022-09-18T20:34:12.262Z,99416.81
2022-09-18T20:36:43.041Z,99414.91
2022-09-18T20:39:13.848Z,99414.73
2022-09-18T20:41:48.067Z,99415.58
2022-09-18T20:44:18.707Z,99414.02
2022-09-18T20:46:49.491Z,99416.80
2022-09-18T20:49:20.980Z,99413.64
2022-09-18T20:51:54.138Z,99414.80
2022-09-18T20:54:24.438Z,99412.20
2022-09-18T20:56:54.813Z,99419.23
2022-09-18T20:59:26.543Z,99417.02
2022-09-18T21:01:56.877Z,99415.61
2022-09-18T21:04:27.184Z,99414.23
2022-09-18T21:06:57.584Z,99417.67
2022-09-18T21:09:32.237Z,99415.26
2022-09-18T21:12:02.623Z,99415.06
2022-09-18T21:14:32.930Z,99418.52
2022-09-18T21:17:04.876Z,99416.14
2022-09-18T21:19:37.079Z,99418.42
2022-09-18T21:22:07.594Z,99417.59
2022-09-18T21:24:38.320Z,99418.10
2022-09-18T21:27:10.193Z,99420.21
2022-09-18T21:29:41.191Z,99415.73
2022-09-18T21:32:12.532Z,99419.19
2022-09-18T21:34:44.457Z,99418.15
2022-09-18T21:37:14.887Z,99423.38
2022-09-18T21:39:45.101Z,99422.70
2022-09-18T21:42:16.812Z,99423.73
2022-09-18T21:44:50.676Z,99423.91
2022-09-18T21:47:21.705Z,99423.05
2022-09-18T21:49:51.911Z,99419.05
2022-09-18T21:56:55.743Z,99419.65
2022-09-18T21:59:32.011Z,99419.16
2022-09-18T22:05:12.556Z,99418.48
2022-09-18T22:07:44.704Z,99419.54
2022-09-18T22:10:16.563Z,99418.88
2022-09-18T22:12:46.911Z,99417.50
2022-09-18T22:15:17.834Z,99417.16
2022-09-18T22:17:52.957Z,99419.06
2022-09-18T22:20:42.605Z,99418.71
2022-09-18T22:23:13.031Z,99418.54
2022-09-18T22:25:43.514Z,99418.54
2022-09-18T22:28:15.694Z,99418.73
2022-09-18T22:30:45.962Z,99419.77
2022-09-18T22:33:16.009Z,99417.55
2022-09-18T22:35:45.965Z,99412.04
2022-09-18T22:38:19.362Z,99413.10
2022-09-18T22:40:49.732Z,99415.94
2022-09-18T22:43:20.006Z,99414.09
2022-09-18T22:45:50.334Z,99414.41
2022-09-18T22:48:22.939Z,99419.09
2022-09-18T22:55:25.364Z,99417.17
2022-09-18T22:57:55.847Z,99418.60
2022-09-18T23:00:26.473Z,99414.64
2022-09-18T23:02:56.923Z,99411.20
2022-09-18T23:05:27.563Z,99412.55
2022-09-18T23:08:00.993Z,99413.40
2022-09-18T23:10:31.444Z,99418.39
2022-09-18T23:13:01.813Z,99416.67
2022-09-18T23:15:32.244Z,99419.30
2022-09-18T23:18:02.477Z,99419.86
2022-09-18T23:20:32.713Z,99418.88
2022-09-18T23:23:02.951Z,99419.27
2022-09-18T23:25:36.705Z,99417.89
2022-09-18T23:28:07.010Z,99415.64
2022-09-18T23:30:40.264Z,99415.09
2022-09-18T23:33:10.575Z,99411.27
2022-09-18T23:35:40.801Z,99412.80
2022-09-18T23:38:11.155Z,99416.72
2022-09-18T23:40:41.433Z,99408.15
2022-09-18T23:43:11.872Z,99410.75
2022-09-18T23:45:42.555Z,99408.36
2022-09-18T23:48:15.393Z,99405.42
2022-09-18T23:50:45.732Z,99407.11
2022-09-18T23:53:16.052Z,99405.41
2022-09-18T23:55:47.294Z,99402.13
2022-09-18T23:58:18.462Z,99407.48
